• Join FlightAware (Why Join?)
  • Login
  • US Flag 
04:59AM EST


 

Airport Tracker/Info


-or-


 

Live Flight TrackerFlight Track Log ✈ SKW4822 ✈ 19-Apr-2013 ✈ KORD - KDTW

Flight Track Log - Related Links

Times and Time Zones

All times are in EDT time to prevent confusion due to time zone crossing. See the SKW4822 flight status page for this flight to view local times or setup timezone preferences in your user account.

Time Position Orientation Groundspeed Altitude Reporting Facility
EDT Latitude Longitude Course Direction KTS MPH feet Rate Location/Type
09:20PM 42.0333 -87.9833 14° North 201 231 4,400  Level Chicago TRACON
09:22PM 42.3809 -87.7679 20° North  Level FlightAware Approximate
09:22PM 42.1147 -88.0489 329° Northwest 230 265 7,700  Level Chicago Center
09:23PM 42.4847 -87.7364 North  Level FlightAware Approximate
09:23PM 42.1844 -88.0583 354° North 255 293 10,400  Level Chicago Center
09:24PM 42.5893 -87.7092 14° North  Level FlightAware Approximate
09:24PM 42.2864 -88.0681 356° North 316 364 12,500  Level Chicago Center
09:25PM 42.6931 -87.6746 14° North  Level FlightAware Approximate
09:25PM 42.3692 -88.0239 22° Northeast 346 398 15,300  Level Chicago Center
09:26PM 42.4572 -87.9511 31° Northeast 368 423 17,700 2,220 Climbing Chicago Center
09:27PM 42.5464 -87.8750 32° Northeast 379 436 19,900 2,220 Climbing Chicago Center
09:28PM 42.6564 -87.7803 32° Northeast 400 460 22,300 2,040 Climbing Chicago Center
09:29PM 42.7542 -87.6981 32° Northeast 412 474 24,100 1,260 Climbing Chicago Center
09:30PM 42.8369 -87.5850 45° Northeast 435 501 25,000 420 Climbing Chicago Center
09:31PM 42.8756 -87.4125 73° East 473 544 25,000  Level Chicago Center
09:32PM 42.9139 -87.2411 73° East 478 550 25,000  Level Chicago Center
09:33PM 42.9542 -87.0617 73° East 491 565 25,000  Level Chicago Center
09:34PM 42.9928 -86.8831 73° East 492 566 25,000  Level Chicago Center
09:35PM 43.0297 -86.7039 74° East 491 565 25,000  Level Chicago Center
09:36PM 43.0769 -86.4878 73° East 494 568 25,000  Level Chicago Center
09:37PM 43.0778 -86.3050 90° East 486 559 25,000 -60 Level Chicago Center
09:38PM 43.0622 -86.1203 97° East 486 559 24,900 -300 Descending Chicago Center
09:39PM 43.0447 -85.9333 97° East 485 558 24,400 -840 Descending Chicago Center
09:40PM 43.0294 -85.7372 96° East 489 563 23,300 -720 Descending Chicago Center
09:41PM 43.0139 -85.5603 97° East 476 548 23,000 -180 Descending Chicago Center
09:42PM 42.9986 -85.3822 97° East 472 543 23,000  Level Chicago Center
09:43PM 42.9828 -85.2039 97° East 474 545 23,000  Level Chicago Center
09:44PM 42.9658 -85.0250 97° East 477 549 23,000  Level Chicago Center
09:45PM 42.9494 -84.8450 97° East 478 550 23,000  Level Chicago Center
09:46PM 42.9328 -84.6664 97° East 479 551 23,000  Level Chicago Center
09:47PM 42.9117 -84.4503 98° East 480 552 23,000 -1,200 Level Chicago Center
09:48PM 42.8936 -84.3158 100° East 471 542 20,900 -3,000 Descending Cleveland Center
09:49PM 42.8800 -84.1561 97° East 439 505 17,900 -2,880 Descending Cleveland Center
09:50PM 42.8661 -83.9939 97° East 433 498 15,400 -2,520 Descending Cleveland Center
09:51PM 42.8458 -83.8342 100° East 427 491 12,900 -1,680 Descending Cleveland Center
09:52PM 42.7867 -83.7067 122° Southeast 398 458 12,000 -660 Descending Cleveland Center
09:53PM 42.6925 -83.6511 157° South 357 411 11,600 -720 Descending Cleveland Center
09:53PM 42.6650 -83.6244 145° Southeast 349 402 11,100 -1,260 Descending FAA TRACON SMA TRACON (SMA)
09:54PM 42.6436 -83.5978 137° Southeast 338 389 10,800 -900 Descending FAA TRACON SMA TRACON (SMA)
09:54PM 42.6236 -83.5731 138° Southeast 319 367 10,500 -1,500 Descending FAA TRACON SMA TRACON (SMA)
09:54PM 42.6000 -83.5436 137° Southeast 303 349 9,800 -1,800 Descending FAA TRACON SMA TRACON (SMA)
09:55PM 42.5817 -83.5206 137° Southeast 295 339 9,300 -1,740 Descending FAA TRACON SMA TRACON (SMA)
09:55PM 42.5631 -83.4972 137° Southeast 294 338 8,700 -1,800 Descending FAA TRACON SMA TRACON (SMA)
09:55PM 42.5403 -83.4683 137° Southeast 294 338 8,100 -1,500 Descending FAA TRACON SMA TRACON (SMA)
09:56PM 42.5222 -83.4453 137° Southeast 290 334 7,700 -1,320 Descending FAA TRACON SMA TRACON (SMA)
09:56PM 42.5042 -83.4228 137° Southeast 288 331 7,200 -1,680 Descending FAA TRACON SMA TRACON (SMA)
09:56PM 42.4814 -83.3942 137° Southeast 288 331 6,600 -1,560 Descending FAA TRACON SMA TRACON (SMA)
09:57PM 42.4633 -83.3714 137° Southeast 286 329 6,200 -1,380 Descending FAA TRACON SMA TRACON (SMA)
09:57PM 42.4456 -83.3492 137° Southeast 285 328 5,700 -1,500 Descending FAA TRACON SMA TRACON (SMA)
09:57PM 42.4278 -83.3261 136° Southeast 286 329 5,200 -1,620 Descending FAA TRACON SMA TRACON (SMA)
09:58PM 42.4056 -83.2978 137° Southeast 284 327 4,600 -1,500 Descending FAA TRACON SMA TRACON (SMA)
09:58PM 42.3861 -83.2839 152° Southeast 260 299 4,200 -1,260 Descending FAA TRACON SMA TRACON (SMA)
09:58PM 42.3622 -83.2817 176° South 237 273 3,800 -900 Descending FAA TRACON SMA TRACON (SMA)
09:59PM 42.3397 -83.2861 188° South 203 234 3,600 -780 Descending FAA TRACON SMA TRACON (SMA)
09:59PM 42.3267 -83.2933 202° Southwest 170 196 3,300 -900 Descending FAA TRACON SMA TRACON (SMA)
09:59PM 42.3119 -83.3031 206° Southwest 148 170 3,000 -900 Descending FAA TRACON SMA TRACON (SMA)